Boston, Massachusetts
Current Conditions -  °F | °C
As of 8:54 AM on Tuesday 21 Oct 2014 (Local Time) from KBOS Reporting Station
Overcast Overcast  
Wind Chill: 57°   Ceiling: 4500
Heat Index: 57°   Visibility: 10mi
Dew Point: 54°   Wind: 7mph
Humidity: 89%   Direction: 140°SE
Pressure: 29.98"   Gusts: NA
Location:  42.36°N, 71.06°W
Report Text: KBOS 211254Z 14006KT 10SM SCT034 BKN045 BKN080 OVC250 14/12 A2998 RMK AO2 SLP152 T01390122
Loading
Personal Weather Stations






























Interactive Weather Map
Tropical Storm Tracking
New forecast layout! Learn more

10-Day Weather Forecast

Advertisements
Track Severe Weather on mobile